sensor_id;sensor_type;location;lat;lon;timestamp;P1;durP1;ratioP1;P2;durP2;ratioP2
48685;SDS011;34485;51.536;3.816;2022-11-20T00:00:07;35.47;;;18.97;;
48685;SDS011;34485;51.536;3.816;2022-11-20T00:02:33;33.95;;;19.00;;
48685;SDS011;34485;51.536;3.816;2022-11-20T00:04:59;31.60;;;18.70;;
48685;SDS011;34485;51.536;3.816;2022-11-20T00:07:25;30.05;;;18.38;;
48685;SDS011;34485;51.536;3.816;2022-11-20T00:09:50;31.97;;;18.07;;
48685;SDS011;34485;51.536;3.816;2022-11-20T00:12:16;34.75;;;20.70;;
48685;SDS011;34485;51.536;3.816;2022-11-20T00:14:41;34.20;;;19.43;;
48685;SDS011;34485;51.536;3.816;2022-11-20T00:17:07;36.97;;;18.47;;
48685;SDS011;34485;51.536;3.816;2022-11-20T00:19:32;35.23;;;18.80;;
48685;SDS011;34485;51.536;3.816;2022-11-20T00:21:58;33.87;;;19.00;;
48685;SDS011;34485;51.536;3.816;2022-11-20T00:24:23;28.27;;;18.00;;
48685;SDS011;34485;51.536;3.816;2022-11-20T00:26:49;33.08;;;19.08;;
48685;SDS011;34485;51.536;3.816;2022-11-20T00:29:15;34.25;;;19.63;;
48685;SDS011;34485;51.536;3.816;2022-11-20T00:31:40;33.30;;;18.93;;
48685;SDS011;34485;51.536;3.816;2022-11-20T00:34:06;35.72;;;18.20;;
48685;SDS011;34485;51.536;3.816;2022-11-20T00:36:32;32.17;;;17.97;;
48685;SDS011;34485;51.536;3.816;2022-11-20T00:38:59;29.77;;;17.92;;
48685;SDS011;34485;51.536;3.816;2022-11-20T00:41:25;30.90;;;19.23;;
48685;SDS011;34485;51.536;3.816;2022-11-20T00:43:53;35.10;;;19.23;;
48685;SDS011;34485;51.536;3.816;2022-11-20T00:46:20;29.92;;;18.58;;
48685;SDS011;34485;51.536;3.816;2022-11-20T00:48:47;34.65;;;19.90;;
48685;SDS011;34485;51.536;3.816;2022-11-20T00:51:15;34.40;;;17.67;;
48685;SDS011;34485;51.536;3.816;2022-11-20T00:53:42;37.47;;;20.05;;
48685;SDS011;34485;51.536;3.816;2022-11-20T00:56:10;31.87;;;19.40;;
48685;SDS011;34485;51.536;3.816;2022-11-20T00:58:38;38.83;;;19.45;;
48685;SDS011;34485;51.536;3.816;2022-11-20T01:01:09;30.63;;;19.23;;
48685;SDS011;34485;51.536;3.816;2022-11-20T01:03:39;36.65;;;19.02;;
48685;SDS011;34485;51.536;3.816;2022-11-20T01:06:07;31.05;;;17.33;;
48685;SDS011;34485;51.536;3.816;2022-11-20T01:08:36;29.65;;;18.75;;
48685;SDS011;34485;51.536;3.816;2022-11-20T01:11:12;30.83;;;17.25;;
48685;SDS011;34485;51.536;3.816;2022-11-20T01:13:40;35.55;;;18.85;;
48685;SDS011;34485;51.536;3.816;2022-11-20T01:16:13;34.13;;;19.38;;
48685;SDS011;34485;51.536;3.816;2022-11-20T01:18:45;35.97;;;18.52;;
48685;SDS011;34485;51.536;3.816;2022-11-20T01:21:13;34.47;;;18.15;;
48685;SDS011;34485;51.536;3.816;2022-11-20T01:23:42;36.38;;;19.67;;
48685;SDS011;34485;51.536;3.816;2022-11-20T01:26:12;34.25;;;18.95;;
48685;SDS011;34485;51.536;3.816;2022-11-20T01:28:40;34.47;;;19.45;;
48685;SDS011;34485;51.536;3.816;2022-11-20T01:31:19;33.40;;;18.85;;
48685;SDS011;34485;51.536;3.816;2022-11-20T01:33:46;33.22;;;19.73;;
48685;SDS011;34485;51.536;3.816;2022-11-20T01:36:13;36.70;;;19.98;;
48685;SDS011;34485;51.536;3.816;2022-11-20T01:38:40;33.97;;;18.80;;
48685;SDS011;34485;51.536;3.816;2022-11-20T01:41:06;36.47;;;18.95;;
48685;SDS011;34485;51.536;3.816;2022-11-20T01:43:33;36.67;;;20.02;;
48685;SDS011;34485;51.536;3.816;2022-11-20T01:46:18;37.13;;;20.70;;
48685;SDS011;34485;51.536;3.816;2022-11-20T01:51:17;38.38;;;19.98;;
48685;SDS011;34485;51.536;3.816;2022-11-20T01:53:50;38.83;;;20.05;;
48685;SDS011;34485;51.536;3.816;2022-11-20T01:56:18;34.10;;;17.90;;
48685;SDS011;34485;51.536;3.816;2022-11-20T01:58:47;35.65;;;18.50;;
48685;SDS011;34485;51.536;3.816;2022-11-20T02:01:16;35.10;;;19.05;;
48685;SDS011;34485;51.536;3.816;2022-11-20T02:03:42;36.67;;;18.83;;
48685;SDS011;34485;51.536;3.816;2022-11-20T02:06:11;39.08;;;19.98;;
48685;SDS011;34485;51.536;3.816;2022-11-20T02:08:55;37.97;;;20.17;;
48685;SDS011;34485;51.536;3.816;2022-11-20T02:11:21;37.28;;;18.65;;
48685;SDS011;34485;51.536;3.816;2022-11-20T02:13:47;43.57;;;20.17;;
48685;SDS011;34485;51.536;3.816;2022-11-20T02:16:27;42.55;;;20.35;;
48685;SDS011;34485;51.536;3.816;2022-11-20T02:18:59;40.47;;;19.83;;
48685;SDS011;34485;51.536;3.816;2022-11-20T02:24:05;38.90;;;20.58;;
48685;SDS011;34485;51.536;3.816;2022-11-20T02:26:38;44.17;;;21.85;;
48685;SDS011;34485;51.536;3.816;2022-11-20T02:29:11;43.55;;;22.15;;
48685;SDS011;34485;51.536;3.816;2022-11-20T02:31:37;46.63;;;20.77;;
48685;SDS011;34485;51.536;3.816;2022-11-20T02:34:06;42.92;;;21.65;;
48685;SDS011;34485;51.536;3.816;2022-11-20T02:36:32;48.83;;;20.23;;
48685;SDS011;34485;51.536;3.816;2022-11-20T02:39:00;38.08;;;20.30;;
48685;SDS011;34485;51.536;3.816;2022-11-20T02:41:36;45.50;;;21.85;;
48685;SDS011;34485;51.536;3.816;2022-11-20T02:44:02;40.38;;;20.10;;
48685;SDS011;34485;51.536;3.816;2022-11-20T02:46:29;39.70;;;19.77;;
48685;SDS011;34485;51.536;3.816;2022-11-20T02:48:55;46.08;;;20.27;;
48685;SDS011;34485;51.536;3.816;2022-11-20T02:51:21;44.83;;;20.42;;
48685;SDS011;34485;51.536;3.816;2022-11-20T02:53:47;49.67;;;20.57;;
48685;SDS011;34485;51.536;3.816;2022-11-20T02:56:12;40.60;;;19.20;;
48685;SDS011;34485;51.536;3.816;2022-11-20T02:58:38;45.05;;;21.05;;
48685;SDS011;34485;51.536;3.816;2022-11-20T03:01:04;43.13;;;20.63;;
48685;SDS011;34485;51.536;3.816;2022-11-20T03:03:29;47.20;;;20.87;;
48685;SDS011;34485;51.536;3.816;2022-11-20T03:05:55;42.25;;;19.90;;
48685;SDS011;34485;51.536;3.816;2022-11-20T03:08:23;48.25;;;22.25;;
48685;SDS011;34485;51.536;3.816;2022-11-20T03:10:48;42.13;;;20.50;;
48685;SDS011;34485;51.536;3.816;2022-11-20T03:13:14;45.63;;;21.30;;
48685;SDS011;34485;51.536;3.816;2022-11-20T03:15:39;49.70;;;21.33;;
48685;SDS011;34485;51.536;3.816;2022-11-20T03:18:05;46.10;;;18.70;;
48685;SDS011;34485;51.536;3.816;2022-11-20T03:20:31;47.47;;;22.27;;
48685;SDS011;34485;51.536;3.816;2022-11-20T03:22:58;50.45;;;20.85;;
48685;SDS011;34485;51.536;3.816;2022-11-20T03:25:24;52.00;;;20.97;;
48685;SDS011;34485;51.536;3.816;2022-11-20T03:27:49;45.08;;;20.85;;
48685;SDS011;34485;51.536;3.816;2022-11-20T03:30:15;42.23;;;20.70;;
48685;SDS011;34485;51.536;3.816;2022-11-20T03:32:41;42.05;;;21.05;;
48685;SDS011;34485;51.536;3.816;2022-11-20T03:35:07;46.80;;;21.90;;
48685;SDS011;34485;51.536;3.816;2022-11-20T03:37:33;54.47;;;22.90;;
48685;SDS011;34485;51.536;3.816;2022-11-20T03:39:58;52.17;;;23.15;;
48685;SDS011;34485;51.536;3.816;2022-11-20T03:42:24;61.27;;;22.10;;
48685;SDS011;34485;51.536;3.816;2022-11-20T03:45:08;56.10;;;22.65;;
48685;SDS011;34485;51.536;3.816;2022-11-20T03:47:34;50.87;;;23.07;;
48685;SDS011;34485;51.536;3.816;2022-11-20T03:49:59;55.45;;;25.08;;
48685;SDS011;34485;51.536;3.816;2022-11-20T03:52:25;57.60;;;24.43;;
48685;SDS011;34485;51.536;3.816;2022-11-20T03:54:50;58.27;;;24.03;;
48685;SDS011;34485;51.536;3.816;2022-11-20T03:57:16;55.42;;;24.38;;
48685;SDS011;34485;51.536;3.816;2022-11-20T03:59:41;57.40;;;26.53;;
48685;SDS011;34485;51.536;3.816;2022-11-20T04:02:07;61.73;;;25.17;;
48685;SDS011;34485;51.536;3.816;2022-11-20T04:04:33;59.88;;;25.30;;
48685;SDS011;34485;51.536;3.816;2022-11-20T04:06:58;63.93;;;26.43;;
48685;SDS011;34485;51.536;3.816;2022-11-20T04:09:24;66.13;;;27.13;;
48685;SDS011;34485;51.536;3.816;2022-11-20T04:11:49;69.90;;;27.52;;
48685;SDS011;34485;51.536;3.816;2022-11-20T04:14:15;65.10;;;27.17;;
48685;SDS011;34485;51.536;3.816;2022-11-20T04:16:41;67.65;;;27.88;;
48685;SDS011;34485;51.536;3.816;2022-11-20T04:19:14;71.45;;;29.00;;
48685;SDS011;34485;51.536;3.816;2022-11-20T04:21:41;73.47;;;29.20;;
48685;SDS011;34485;51.536;3.816;2022-11-20T04:24:08;65.83;;;26.97;;
48685;SDS011;34485;51.536;3.816;2022-11-20T04:26:35;69.57;;;29.17;;
48685;SDS011;34485;51.536;3.816;2022-11-20T04:29:01;77.07;;;30.55;;
48685;SDS011;34485;51.536;3.816;2022-11-20T04:31:28;73.30;;;29.58;;
48685;SDS011;34485;51.536;3.816;2022-11-20T04:33:55;83.88;;;30.92;;
48685;SDS011;34485;51.536;3.816;2022-11-20T04:36:26;81.53;;;30.10;;
48685;SDS011;34485;51.536;3.816;2022-11-20T04:38:53;90.35;;;31.17;;
48685;SDS011;34485;51.536;3.816;2022-11-20T04:41:25;84.97;;;32.17;;
48685;SDS011;34485;51.536;3.816;2022-11-20T04:43:56;79.38;;;31.05;;
48685;SDS011;34485;51.536;3.816;2022-11-20T04:46:28;92.57;;;32.30;;
48685;SDS011;34485;51.536;3.816;2022-11-20T04:48:59;83.33;;;30.70;;
48685;SDS011;34485;51.536;3.816;2022-11-20T04:51:25;96.88;;;33.95;;
48685;SDS011;34485;51.536;3.816;2022-11-20T04:53:50;102.95;;;31.13;;
48685;SDS011;34485;51.536;3.816;2022-11-20T04:56:16;92.27;;;34.67;;
48685;SDS011;34485;51.536;3.816;2022-11-20T04:58:42;105.90;;;32.53;;
48685;SDS011;34485;51.536;3.816;2022-11-20T05:01:12;99.03;;;34.27;;
48685;SDS011;34485;51.536;3.816;2022-11-20T05:03:45;92.13;;;31.67;;
48685;SDS011;34485;51.536;3.816;2022-11-20T05:06:12;97.25;;;33.15;;
48685;SDS011;34485;51.536;3.816;2022-11-20T05:08:40;94.72;;;32.03;;
48685;SDS011;34485;51.536;3.816;2022-11-20T05:11:07;92.85;;;33.17;;
48685;SDS011;34485;51.536;3.816;2022-11-20T05:13:34;91.17;;;32.90;;
48685;SDS011;34485;51.536;3.816;2022-11-20T05:16:01;91.85;;;33.45;;
48685;SDS011;34485;51.536;3.816;2022-11-20T05:18:27;82.22;;;31.88;;
48685;SDS011;34485;51.536;3.816;2022-11-20T05:20:56;86.83;;;31.67;;
48685;SDS011;34485;51.536;3.816;2022-11-20T05:23:23;87.82;;;32.63;;
48685;SDS011;34485;51.536;3.816;2022-11-20T05:25:51;94.70;;;33.25;;
48685;SDS011;34485;51.536;3.816;2022-11-20T05:28:21;98.70;;;34.13;;
48685;SDS011;34485;51.536;3.816;2022-11-20T05:30:47;86.10;;;32.63;;
48685;SDS011;34485;51.536;3.816;2022-11-20T05:33:13;89.85;;;32.55;;
48685;SDS011;34485;51.536;3.816;2022-11-20T05:35:38;94.47;;;31.50;;
48685;SDS011;34485;51.536;3.816;2022-11-20T05:38:04;95.47;;;32.10;;
48685;SDS011;34485;51.536;3.816;2022-11-20T05:40:29;89.20;;;33.07;;
48685;SDS011;34485;51.536;3.816;2022-11-20T05:42:55;94.78;;;32.72;;
48685;SDS011;34485;51.536;3.816;2022-11-20T05:45:21;94.00;;;31.30;;
48685;SDS011;34485;51.536;3.816;2022-11-20T05:47:46;88.53;;;31.60;;
48685;SDS011;34485;51.536;3.816;2022-11-20T05:50:12;93.28;;;32.58;;
48685;SDS011;34485;51.536;3.816;2022-11-20T05:52:39;90.47;;;33.22;;
48685;SDS011;34485;51.536;3.816;2022-11-20T05:55:05;100.17;;;33.00;;
48685;SDS011;34485;51.536;3.816;2022-11-20T05:57:31;96.40;;;33.63;;
48685;SDS011;34485;51.536;3.816;2022-11-20T05:59:57;97.83;;;32.73;;
48685;SDS011;34485;51.536;3.816;2022-11-20T06:02:22;79.68;;;33.22;;
48685;SDS011;34485;51.536;3.816;2022-11-20T06:04:48;89.43;;;33.77;;
48685;SDS011;34485;51.536;3.816;2022-11-20T06:07:14;95.30;;;34.35;;
48685;SDS011;34485;51.536;3.816;2022-11-20T06:09:40;93.70;;;34.05;;
48685;SDS011;34485;51.536;3.816;2022-11-20T06:12:05;101.20;;;33.27;;
48685;SDS011;34485;51.536;3.816;2022-11-20T06:14:31;99.20;;;33.72;;
48685;SDS011;34485;51.536;3.816;2022-11-20T06:16:58;97.45;;;33.65;;
48685;SDS011;34485;51.536;3.816;2022-11-20T06:19:23;87.17;;;32.67;;
48685;SDS011;34485;51.536;3.816;2022-11-20T06:21:49;96.32;;;33.70;;
48685;SDS011;34485;51.536;3.816;2022-11-20T06:24:15;109.93;;;37.37;;
48685;SDS011;34485;51.536;3.816;2022-11-20T06:26:41;100.57;;;33.00;;
48685;SDS011;34485;51.536;3.816;2022-11-20T06:29:07;100.97;;;34.33;;
48685;SDS011;34485;51.536;3.816;2022-11-20T06:31:32;96.07;;;34.85;;
48685;SDS011;34485;51.536;3.816;2022-11-20T06:34:00;79.85;;;32.63;;
48685;SDS011;34485;51.536;3.816;2022-11-20T06:36:26;97.70;;;34.47;;
48685;SDS011;34485;51.536;3.816;2022-11-20T06:38:51;95.88;;;34.08;;
48685;SDS011;34485;51.536;3.816;2022-11-20T06:41:18;98.88;;;34.28;;
48685;SDS011;34485;51.536;3.816;2022-11-20T06:43:45;101.60;;;34.53;;
48685;SDS011;34485;51.536;3.816;2022-11-20T06:46:12;109.18;;;37.60;;
48685;SDS011;34485;51.536;3.816;2022-11-20T06:48:39;109.90;;;35.67;;
48685;SDS011;34485;51.536;3.816;2022-11-20T06:51:05;103.13;;;36.42;;
48685;SDS011;34485;51.536;3.816;2022-11-20T06:53:32;104.68;;;33.50;;
48685;SDS011;34485;51.536;3.816;2022-11-20T06:55:58;106.50;;;34.88;;
48685;SDS011;34485;51.536;3.816;2022-11-20T06:58:26;107.22;;;36.70;;
48685;SDS011;34485;51.536;3.816;2022-11-20T07:00:53;99.05;;;33.70;;
48685;SDS011;34485;51.536;3.816;2022-11-20T07:03:19;107.10;;;36.60;;
48685;SDS011;34485;51.536;3.816;2022-11-20T07:05:44;111.38;;;37.72;;
48685;SDS011;34485;51.536;3.816;2022-11-20T07:08:11;85.93;;;33.28;;
48685;SDS011;34485;51.536;3.816;2022-11-20T07:10:37;91.97;;;31.48;;
48685;SDS011;34485;51.536;3.816;2022-11-20T07:13:03;118.72;;;39.92;;
48685;SDS011;34485;51.536;3.816;2022-11-20T07:15:28;111.30;;;35.30;;
48685;SDS011;34485;51.536;3.816;2022-11-20T07:17:54;104.85;;;35.40;;
48685;SDS011;34485;51.536;3.816;2022-11-20T07:20:20;124.47;;;41.30;;
48685;SDS011;34485;51.536;3.816;2022-11-20T07:22:46;113.60;;;38.07;;
48685;SDS011;34485;51.536;3.816;2022-11-20T07:25:11;105.05;;;34.97;;
48685;SDS011;34485;51.536;3.816;2022-11-20T07:27:37;111.37;;;37.77;;
48685;SDS011;34485;51.536;3.816;2022-11-20T07:30:03;117.30;;;36.60;;
48685;SDS011;34485;51.536;3.816;2022-11-20T07:32:29;124.53;;;38.60;;
48685;SDS011;34485;51.536;3.816;2022-11-20T07:34:55;108.88;;;37.03;;
48685;SDS011;34485;51.536;3.816;2022-11-20T07:37:20;107.57;;;36.13;;
48685;SDS011;34485;51.536;3.816;2022-11-20T07:39:46;119.95;;;38.38;;
48685;SDS011;34485;51.536;3.816;2022-11-20T07:42:11;116.07;;;36.33;;
48685;SDS011;34485;51.536;3.816;2022-11-20T07:44:37;92.47;;;32.55;;
48685;SDS011;34485;51.536;3.816;2022-11-20T07:47:03;123.10;;;41.03;;
48685;SDS011;34485;51.536;3.816;2022-11-20T07:49:29;114.43;;;38.13;;
48685;SDS011;34485;51.536;3.816;2022-11-20T07:51:55;117.77;;;39.87;;
48685;SDS011;34485;51.536;3.816;2022-11-20T07:54:20;121.20;;;39.75;;
48685;SDS011;34485;51.536;3.816;2022-11-20T07:56:47;132.52;;;41.20;;
48685;SDS011;34485;51.536;3.816;2022-11-20T07:59:13;120.80;;;37.42;;
48685;SDS011;34485;51.536;3.816;2022-11-20T08:01:40;126.63;;;39.28;;
48685;SDS011;34485;51.536;3.816;2022-11-20T08:04:06;107.97;;;37.53;;
48685;SDS011;34485;51.536;3.816;2022-11-20T08:06:32;131.85;;;41.90;;
48685;SDS011;34485;51.536;3.816;2022-11-20T08:08:58;122.67;;;36.77;;
48685;SDS011;34485;51.536;3.816;2022-11-20T08:11:23;125.13;;;41.20;;
48685;SDS011;34485;51.536;3.816;2022-11-20T08:14:07;130.80;;;40.80;;
48685;SDS011;34485;51.536;3.816;2022-11-20T08:19:06;132.38;;;38.28;;
48685;SDS011;34485;51.536;3.816;2022-11-20T08:21:32;126.07;;;41.38;;
48685;SDS011;34485;51.536;3.816;2022-11-20T08:23:58;141.90;;;41.92;;
48685;SDS011;34485;51.536;3.816;2022-11-20T08:26:24;145.95;;;42.63;;
48685;SDS011;34485;51.536;3.816;2022-11-20T08:28:54;130.63;;;43.23;;
48685;SDS011;34485;51.536;3.816;2022-11-20T08:31:23;123.35;;;39.80;;
48685;SDS011;34485;51.536;3.816;2022-11-20T08:33:49;128.52;;;39.60;;
48685;SDS011;34485;51.536;3.816;2022-11-20T08:36:16;115.47;;;37.53;;
48685;SDS011;34485;51.536;3.816;2022-11-20T08:38:46;130.75;;;41.60;;
48685;SDS011;34485;51.536;3.816;2022-11-20T08:41:16;142.37;;;42.63;;
48685;SDS011;34485;51.536;3.816;2022-11-20T08:43:59;135.80;;;44.50;;
48685;SDS011;34485;51.536;3.816;2022-11-20T08:46:27;148.45;;;45.55;;
48685;SDS011;34485;51.536;3.816;2022-11-20T08:48:58;138.70;;;42.70;;
48685;SDS011;34485;51.536;3.816;2022-11-20T08:51:23;119.57;;;38.73;;
48685;SDS011;34485;51.536;3.816;2022-11-20T08:53:49;121.72;;;40.33;;
48685;SDS011;34485;51.536;3.816;2022-11-20T08:56:15;98.27;;;32.63;;
48685;SDS011;34485;51.536;3.816;2022-11-20T08:58:41;108.85;;;36.67;;
48685;SDS011;34485;51.536;3.816;2022-11-20T09:01:07;94.17;;;30.43;;
48685;SDS011;34485;51.536;3.816;2022-11-20T09:03:32;103.63;;;33.38;;
48685;SDS011;34485;51.536;3.816;2022-11-20T09:05:59;89.67;;;32.80;;
48685;SDS011;34485;51.536;3.816;2022-11-20T09:08:25;93.63;;;33.95;;
48685;SDS011;34485;51.536;3.816;2022-11-20T09:10:52;87.70;;;32.33;;
48685;SDS011;34485;51.536;3.816;2022-11-20T09:13:19;97.43;;;33.08;;
48685;SDS011;34485;51.536;3.816;2022-11-20T09:15:55;88.63;;;31.43;;
48685;SDS011;34485;51.536;3.816;2022-11-20T09:18:22;93.10;;;34.70;;
48685;SDS011;34485;51.536;3.816;2022-11-20T09:20:48;92.55;;;32.53;;
48685;SDS011;34485;51.536;3.816;2022-11-20T09:23:14;79.90;;;31.20;;
48685;SDS011;34485;51.536;3.816;2022-11-20T09:25:40;84.20;;;31.10;;
48685;SDS011;34485;51.536;3.816;2022-11-20T09:28:06;87.10;;;31.73;;
48685;SDS011;34485;51.536;3.816;2022-11-20T09:30:31;103.07;;;36.07;;
48685;SDS011;34485;51.536;3.816;2022-11-20T09:32:57;98.53;;;31.70;;
48685;SDS011;34485;51.536;3.816;2022-11-20T09:35:23;92.80;;;30.07;;
48685;SDS011;34485;51.536;3.816;2022-11-20T09:37:48;93.10;;;30.83;;
48685;SDS011;34485;51.536;3.816;2022-11-20T09:40:21;95.60;;;32.53;;
48685;SDS011;34485;51.536;3.816;2022-11-20T09:51:23;110.28;;;33.80;;
48685;SDS011;34485;51.536;3.816;2022-11-20T09:54:12;118.15;;;33.38;;
48685;SDS011;34485;51.536;3.816;2022-11-20T09:56:48;98.28;;;30.08;;
48685;SDS011;34485;51.536;3.816;2022-11-20T10:00:04;102.60;;;30.73;;
48685;SDS011;34485;51.536;3.816;2022-11-20T10:02:16;98.85;;;30.63;;
48685;SDS011;34485;51.536;3.816;2022-11-20T10:04:51;98.78;;;30.88;;
48685;SDS011;34485;51.536;3.816;2022-11-20T10:07:24;99.78;;;29.73;;
48685;SDS011;34485;51.536;3.816;2022-11-20T10:09:57;112.72;;;31.73;;
48685;SDS011;34485;51.536;3.816;2022-11-20T10:12:26;119.30;;;34.07;;
48685;SDS011;34485;51.536;3.816;2022-11-20T10:17:53;87.90;;;28.43;;
48685;SDS011;34485;51.536;3.816;2022-11-20T10:25:47;111.38;;;34.35;;
48685;SDS011;34485;51.536;3.816;2022-11-20T10:31:03;111.30;;;33.37;;
48685;SDS011;34485;51.536;3.816;2022-11-20T10:33:35;108.22;;;33.08;;
48685;SDS011;34485;51.536;3.816;2022-11-20T10:36:08;111.07;;;32.33;;
48685;SDS011;34485;51.536;3.816;2022-11-20T10:38:39;121.68;;;34.63;;
48685;SDS011;34485;51.536;3.816;2022-11-20T10:41:23;89.47;;;28.10;;
48685;SDS011;34485;51.536;3.816;2022-11-20T10:44:08;105.97;;;34.23;;
48685;SDS011;34485;51.536;3.816;2022-11-20T10:47:01;121.15;;;36.38;;
48685;SDS011;34485;51.536;3.816;2022-11-20T10:49:28;107.47;;;33.22;;
48685;SDS011;34485;51.536;3.816;2022-11-20T11:00:44;91.10;;;30.13;;
48685;SDS011;34485;51.536;3.816;2022-11-20T11:03:23;97.80;;;31.95;;
48685;SDS011;34485;51.536;3.816;2022-11-20T11:08:37;69.57;;;24.23;;
48685;SDS011;34485;51.536;3.816;2022-11-20T11:11:18;80.70;;;28.10;;
48685;SDS011;34485;51.536;3.816;2022-11-20T11:13:46;87.07;;;27.50;;
48685;SDS011;34485;51.536;3.816;2022-11-20T11:16:24;77.57;;;27.77;;
48685;SDS011;34485;51.536;3.816;2022-11-20T11:18:51;83.30;;;28.65;;
48685;SDS011;34485;51.536;3.816;2022-11-20T11:21:46;79.28;;;27.08;;
48685;SDS011;34485;51.536;3.816;2022-11-20T11:24:35;80.35;;;29.08;;
48685;SDS011;34485;51.536;3.816;2022-11-20T11:27:00;86.43;;;28.33;;
48685;SDS011;34485;51.536;3.816;2022-11-20T11:29:29;85.60;;;32.38;;
48685;SDS011;34485;51.536;3.816;2022-11-20T11:35:06;70.00;;;24.83;;
48685;SDS011;34485;51.536;3.816;2022-11-20T11:37:47;71.80;;;29.13;;
48685;SDS011;34485;51.536;3.816;2022-11-20T11:40:14;68.63;;;24.83;;
48685;SDS011;34485;51.536;3.816;2022-11-20T11:42:43;81.93;;;30.65;;
48685;SDS011;34485;51.536;3.816;2022-11-20T11:45:13;81.80;;;28.98;;
48685;SDS011;34485;51.536;3.816;2022-11-20T11:50:18;70.13;;;26.97;;
48685;SDS011;34485;51.536;3.816;2022-11-20T11:52:50;70.85;;;23.67;;
48685;SDS011;34485;51.536;3.816;2022-11-20T12:00:36;63.37;;;23.03;;
48685;SDS011;34485;51.536;3.816;2022-11-20T12:05:44;69.57;;;27.30;;
48685;SDS011;34485;51.536;3.816;2022-11-20T12:11:11;59.88;;;22.85;;
48685;SDS011;34485;51.536;3.816;2022-11-20T12:13:56;45.13;;;16.93;;
48685;SDS011;34485;51.536;3.816;2022-11-20T12:16:23;49.28;;;21.08;;
48685;SDS011;34485;51.536;3.816;2022-11-20T12:18:50;50.30;;;19.80;;
48685;SDS011;34485;51.536;3.816;2022-11-20T12:21:18;53.30;;;20.70;;
48685;SDS011;34485;51.536;3.816;2022-11-20T12:26:22;50.00;;;19.10;;
48685;SDS011;34485;51.536;3.816;2022-11-20T12:32:01;36.13;;;15.00;;
48685;SDS011;34485;51.536;3.816;2022-11-20T12:35:15;44.88;;;17.25;;
48685;SDS011;34485;51.536;3.816;2022-11-20T12:38:08;44.38;;;16.70;;
48685;SDS011;34485;51.536;3.816;2022-11-20T13:01:15;33.47;;;13.83;;
48685;SDS011;34485;51.536;3.816;2022-11-20T13:04:07;38.13;;;16.73;;
48685;SDS011;34485;51.536;3.816;2022-11-20T13:06:40;106.63;;;47.70;;
48685;SDS011;34485;51.536;3.816;2022-11-20T13:09:08;31.70;;;13.83;;
48685;SDS011;34485;51.536;3.816;2022-11-20T13:19:56;28.35;;;13.45;;
48685;SDS011;34485;51.536;3.816;2022-11-20T13:22:43;17.57;;;10.57;;
48685;SDS011;34485;51.536;3.816;2022-11-20T13:25:28;15.90;;;10.00;;
48685;SDS011;34485;51.536;3.816;2022-11-20T13:28:00;14.65;;;11.27;;
48685;SDS011;34485;51.536;3.816;2022-11-20T13:30:50;14.80;;;11.40;;
48685;SDS011;34485;51.536;3.816;2022-11-20T13:33:28;9.98;;;8.30;;
48685;SDS011;34485;51.536;3.816;2022-11-20T13:35:58;18.43;;;9.07;;
48685;SDS011;34485;51.536;3.816;2022-11-20T13:38:25;12.85;;;7.20;;
48685;SDS011;34485;51.536;3.816;2022-11-20T13:40:55;18.88;;;11.13;;
48685;SDS011;34485;51.536;3.816;2022-11-20T13:43:46;21.05;;;16.77;;
48685;SDS011;34485;51.536;3.816;2022-11-20T13:46:12;11.37;;;8.00;;
48685;SDS011;34485;51.536;3.816;2022-11-20T13:48:41;12.63;;;8.88;;
48685;SDS011;34485;51.536;3.816;2022-11-20T14:02:27;9.32;;;7.78;;
48685;SDS011;34485;51.536;3.816;2022-11-20T14:04:56;8.25;;;6.68;;
48685;SDS011;34485;51.536;3.816;2022-11-20T14:07:24;9.52;;;6.35;;
48685;SDS011;34485;51.536;3.816;2022-11-20T14:09:56;11.60;;;7.50;;
48685;SDS011;34485;51.536;3.816;2022-11-20T14:12:27;31.77;;;18.60;;
48685;SDS011;34485;51.536;3.816;2022-11-20T14:14:54;13.23;;;8.50;;
48685;SDS011;34485;51.536;3.816;2022-11-20T14:17:21;13.50;;;8.68;;
48685;SDS011;34485;51.536;3.816;2022-11-20T14:19:54;11.85;;;7.68;;
48685;SDS011;34485;51.536;3.816;2022-11-20T14:22:24;9.52;;;5.93;;
48685;SDS011;34485;51.536;3.816;2022-11-20T14:25:01;7.87;;;6.73;;
48685;SDS011;34485;51.536;3.816;2022-11-20T14:27:37;7.32;;;6.50;;
48685;SDS011;34485;51.536;3.816;2022-11-20T14:30:04;11.38;;;10.27;;
48685;SDS011;34485;51.536;3.816;2022-11-20T14:32:37;9.15;;;8.40;;
48685;SDS011;34485;51.536;3.816;2022-11-20T14:35:06;10.20;;;9.23;;
48685;SDS011;34485;51.536;3.816;2022-11-20T14:37:36;9.32;;;8.43;;
48685;SDS011;34485;51.536;3.816;2022-11-20T14:40:05;8.73;;;7.85;;
48685;SDS011;34485;51.536;3.816;2022-11-20T14:42:46;7.28;;;6.68;;
48685;SDS011;34485;51.536;3.816;2022-11-20T14:45:12;10.97;;;8.10;;
48685;SDS011;34485;51.536;3.816;2022-11-20T14:47:38;7.40;;;6.70;;
48685;SDS011;34485;51.536;3.816;2022-11-20T14:50:07;9.93;;;7.35;;
48685;SDS011;34485;51.536;3.816;2022-11-20T14:52:49;7.40;;;6.70;;
48685;SDS011;34485;51.536;3.816;2022-11-20T14:55:26;8.50;;;6.30;;
48685;SDS011;34485;51.536;3.816;2022-11-20T14:57:58;7.95;;;7.13;;
48685;SDS011;34485;51.536;3.816;2022-11-20T15:00:29;7.93;;;6.38;;
48685;SDS011;34485;51.536;3.816;2022-11-20T15:02:57;12.05;;;7.10;;
48685;SDS011;34485;51.536;3.816;2022-11-20T15:05:43;16.63;;;7.47;;
48685;SDS011;34485;51.536;3.816;2022-11-20T15:08:15;9.32;;;6.50;;
48685;SDS011;34485;51.536;3.816;2022-11-20T15:10:48;12.52;;;6.93;;
48685;SDS011;34485;51.536;3.816;2022-11-20T15:13:25;17.20;;;8.23;;
48685;SDS011;34485;51.536;3.816;2022-11-20T15:15:55;14.85;;;5.65;;
48685;SDS011;34485;51.536;3.816;2022-11-20T15:18:22;15.97;;;4.00;;
48685;SDS011;34485;51.536;3.816;2022-11-20T15:20:53;5.35;;;2.15;;
48685;SDS011;34485;51.536;3.816;2022-11-20T15:23:21;16.27;;;2.95;;
48685;SDS011;34485;51.536;3.816;2022-11-20T15:25:47;16.17;;;2.57;;
48685;SDS011;34485;51.536;3.816;2022-11-20T15:28:18;12.27;;;2.60;;
48685;SDS011;34485;51.536;3.816;2022-11-20T15:30:47;13.73;;;3.42;;
48685;SDS011;34485;51.536;3.816;2022-11-20T15:33:14;17.30;;;4.07;;
48685;SDS011;34485;51.536;3.816;2022-11-20T15:35:41;22.65;;;3.83;;
48685;SDS011;34485;51.536;3.816;2022-11-20T15:38:07;24.63;;;3.43;;
48685;SDS011;34485;51.536;3.816;2022-11-20T15:40:33;17.33;;;3.50;;
48685;SDS011;34485;51.536;3.816;2022-11-20T15:42:59;15.60;;;4.03;;
48685;SDS011;34485;51.536;3.816;2022-11-20T15:45:27;13.27;;;3.40;;
48685;SDS011;34485;51.536;3.816;2022-11-20T15:48:17;10.90;;;3.38;;
48685;SDS011;34485;51.536;3.816;2022-11-20T15:53:29;16.73;;;3.58;;
48685;SDS011;34485;51.536;3.816;2022-11-20T15:55:54;19.77;;;3.43;;
48685;SDS011;34485;51.536;3.816;2022-11-20T15:58:20;19.97;;;3.47;;
48685;SDS011;34485;51.536;3.816;2022-11-20T16:00:47;22.05;;;3.17;;
48685;SDS011;34485;51.536;3.816;2022-11-20T16:03:14;19.73;;;3.67;;
48685;SDS011;34485;51.536;3.816;2022-11-20T16:05:40;23.97;;;4.03;;
48685;SDS011;34485;51.536;3.816;2022-11-20T16:08:06;19.90;;;4.65;;
48685;SDS011;34485;51.536;3.816;2022-11-20T16:10:31;20.90;;;4.47;;
48685;SDS011;34485;51.536;3.816;2022-11-20T16:12:57;28.10;;;4.32;;
48685;SDS011;34485;51.536;3.816;2022-11-20T16:15:42;19.52;;;2.72;;